createdAt,value
2023-02-22T00:01:47.498Z,101336.59
2023-02-22T00:04:15.944Z,101357.34
2023-02-22T00:06:42.612Z,101332.09
2023-02-22T00:09:10.324Z,101255.75
2023-02-22T00:11:38.473Z,101337.47
2023-02-22T00:14:05.566Z,101353.88
2023-02-22T00:16:32.215Z,101333.88
2023-02-22T00:18:58.934Z,101344.56
2023-02-22T00:21:25.542Z,101289.50
2023-02-22T00:23:54.641Z,101307.41
2023-02-22T00:26:23.327Z,101332.63
2023-02-22T00:28:54.446Z,101323.69
2023-02-22T00:31:21.804Z,101313.06
2023-02-22T00:33:49.406Z,101349.00
2023-02-22T00:36:17.370Z,101351.75
2023-02-22T00:38:43.925Z,101333.69
2023-02-22T00:41:11.753Z,101316.88
2023-02-22T00:43:38.341Z,101314.81
2023-02-22T00:46:05.210Z,101252.72
2023-02-22T00:48:31.820Z,101260.03
2023-02-22T00:50:58.425Z,101351.66
2023-02-22T00:53:26.435Z,101256.44
2023-02-22T00:55:53.895Z,101321.22
2023-02-22T00:58:22.007Z,101253.06
2023-02-22T01:00:50.105Z,101316.88
2023-02-22T01:03:19.348Z,101313.22
2023-02-22T01:05:46.619Z,101298.97
2023-02-22T01:08:15.902Z,101332.19
2023-02-22T01:10:43.401Z,101315.94
2023-02-22T01:13:12.846Z,101319.72
2023-02-22T01:15:43.068Z,101311.50
2023-02-22T01:18:10.195Z,101241.50
2023-02-22T01:20:37.100Z,101228.91
2023-02-22T01:23:06.990Z,101323.22
2023-02-22T01:25:35.273Z,101301.56
2023-02-22T01:28:03.639Z,101222.63
2023-02-22T01:30:35.886Z,101282.91
2023-02-22T01:33:05.118Z,101300.81
2023-02-22T01:35:35.368Z,101233.31
2023-02-22T01:38:02.060Z,101184.19
2023-02-22T01:40:34.453Z,101272.91
2023-02-22T01:43:30.378Z,101297.16
2023-02-22T01:46:04.496Z,101306.84
2023-02-22T01:48:40.938Z,101257.44
2023-02-22T01:51:20.832Z,101242.59
2023-02-22T01:54:01.418Z,101288.50
2023-02-22T01:56:30.757Z,101267.75
2023-02-22T01:59:00.969Z,101283.69
2023-02-22T02:01:29.384Z,101206.47
2023-02-22T02:03:59.761Z,101207.31
2023-02-22T02:06:29.242Z,101253.16
2023-02-22T02:09:02.731Z,101280.22
2023-02-22T02:11:29.593Z,101239.53
2023-02-22T02:14:00.056Z,101278.19
2023-02-22T02:16:44.490Z,101263.88
2023-02-22T02:19:24.224Z,101251.94
2023-02-22T02:22:07.939Z,101271.66
2023-02-22T02:25:05.034Z,101267.69
2023-02-22T02:27:45.374Z,101239.63
2023-02-22T02:30:19.474Z,101248.72
2023-02-22T02:32:53.841Z,101265.56
2023-02-22T02:35:50.159Z,101260.69
2023-02-22T02:38:31.844Z,101238.66
2023-02-22T02:41:08.901Z,101252.34
2023-02-22T02:43:59.216Z,101251.34
2023-02-22T02:46:36.685Z,101208.22
2023-02-22T02:49:11.170Z,101158.63
2023-02-22T02:51:41.952Z,101229.38
2023-02-22T02:54:11.366Z,101236.16
2023-02-22T02:56:37.972Z,101218.19
2023-02-22T02:59:25.240Z,101133.69
2023-02-22T03:02:11.562Z,101227.06
2023-02-22T03:04:42.488Z,101232.69
2023-02-22T03:07:25.448Z,101217.41
2023-02-22T03:10:25.469Z,101224.25
2023-02-22T03:12:58.476Z,101226.84
2023-02-22T03:15:49.584Z,101221.44
2023-02-22T03:18:30.851Z,101217.13
2023-02-22T03:21:19.477Z,101214.59
2023-02-22T03:23:56.132Z,101193.84
2023-02-22T03:26:31.296Z,101222.34
2023-02-22T03:29:05.041Z,101195.75
2023-02-22T03:31:37.756Z,101198.31
2023-02-22T03:34:14.160Z,101219.22
2023-02-22T03:36:49.942Z,101099.88
2023-02-22T03:39:19.086Z,101186.78
2023-02-22T03:41:51.404Z,101117.88
2023-02-22T03:44:27.362Z,101117.72
2023-02-22T03:46:57.747Z,101219.38
2023-02-22T03:49:51.195Z,101081.03
2023-02-22T03:52:19.856Z,101199.63
2023-02-22T03:54:46.484Z,101182.75
2023-02-22T03:57:25.425Z,101195.31
2023-02-22T04:00:07.169Z,101109.97
2023-02-22T04:02:40.497Z,101173.81
2023-02-22T04:05:10.583Z,101196.31
2023-02-22T04:07:37.401Z,101178.44
2023-02-22T04:10:04.591Z,101158.78
2023-02-22T04:12:31.211Z,101160.69
2023-02-22T04:15:03.654Z,101116.00
2023-02-22T04:17:30.375Z,101147.34
2023-02-22T04:19:58.221Z,101186.56
2023-02-22T04:22:27.701Z,101143.59
2023-02-22T04:24:54.451Z,101184.75
2023-02-22T04:27:21.411Z,101169.72
2023-02-22T04:29:48.469Z,101158.72
2023-02-22T04:32:16.077Z,101097.69
2023-02-22T04:34:42.759Z,101151.53
2023-02-22T04:37:10.433Z,101159.75
2023-02-22T04:39:37.066Z,101114.03
2023-02-22T04:42:04.998Z,101156.38
2023-02-22T04:44:32.743Z,101155.66
2023-02-22T04:47:00.430Z,101111.38
2023-02-22T04:49:28.128Z,101145.72
2023-02-22T04:51:56.962Z,101040.91
2023-02-22T04:54:32.517Z,101121.72
2023-02-22T04:56:59.127Z,101145.16
2023-02-22T04:59:26.514Z,101120.16
2023-02-22T05:01:56.729Z,101065.34
2023-02-22T05:04:23.343Z,101129.16
2023-02-22T05:06:50.295Z,101128.44
2023-02-22T05:09:16.824Z,101024.34
2023-02-22T05:11:43.455Z,101097.16
2023-02-22T05:14:10.042Z,101070.19
2023-02-22T05:16:36.881Z,101068.44
2023-02-22T05:19:03.867Z,101073.03
2023-02-22T05:21:30.486Z,101112.06
2023-02-22T05:23:57.513Z,101060.09
2023-02-22T05:26:24.239Z,101067.88
2023-02-22T05:28:50.902Z,100978.94
2023-02-22T05:31:18.053Z,101071.28
2023-02-22T05:33:44.899Z,101019.56
2023-02-22T05:36:11.511Z,101090.41
2023-02-22T05:38:43.417Z,101091.31
2023-02-22T05:41:12.117Z,101031.03
2023-02-22T05:43:40.064Z,101029.31
2023-02-22T05:46:06.979Z,101112.75
2023-02-22T05:48:33.803Z,101044.56
2023-02-22T05:51:00.404Z,101103.66
2023-02-22T05:53:27.719Z,101074.28
2023-02-22T05:55:54.560Z,101065.34
2023-02-22T05:58:21.782Z,101101.47
2023-02-22T06:00:48.423Z,101086.38
2023-02-22T06:03:15.276Z,101063.06
2023-02-22T06:05:42.813Z,101045.09
2023-02-22T06:08:10.161Z,101012.81
2023-02-22T06:10:36.881Z,101001.16
2023-02-22T06:13:05.316Z,101038.84
2023-02-22T06:15:32.240Z,101068.44
2023-02-22T06:18:00.161Z,101065.00
2023-02-22T06:20:28.886Z,101002.50
2023-02-22T06:22:57.643Z,101083.31
2023-02-22T06:25:27.155Z,101066.34
2023-02-22T06:27:53.938Z,101069.31
2023-02-22T06:30:22.642Z,100980.75
2023-02-22T06:32:49.250Z,101062.44
2023-02-22T06:35:16.833Z,100968.19
2023-02-22T06:37:43.646Z,101047.88
2023-02-22T06:40:11.254Z,100900.28
2023-02-22T06:42:38.687Z,101033.97
2023-02-22T06:45:05.544Z,101031.13
2023-02-22T06:47:32.174Z,101058.22
2023-02-22T06:50:03.778Z,101062.66
2023-02-22T06:52:30.396Z,100962.25
2023-02-22T06:54:56.951Z,101015.25
2023-02-22T06:57:23.686Z,100951.91
2023-02-22T06:59:50.333Z,101031.78
2023-02-22T07:02:16.938Z,100924.47
2023-02-22T07:04:45.309Z,101004.09
2023-02-22T07:07:11.887Z,100996.84
2023-02-22T07:09:38.418Z,101013.06
2023-02-22T07:12:05.069Z,100948.53
2023-02-22T07:14:31.696Z,101016.75
2023-02-22T07:16:58.226Z,101012.97
2023-02-22T07:19:24.713Z,101027.22
2023-02-22T07:21:55.306Z,101034.69
2023-02-22T07:24:21.894Z,101023.25
2023-02-22T07:26:48.471Z,101031.31
2023-02-22T07:29:14.973Z,101026.34
2023-02-22T07:31:41.563Z,101017.16
2023-02-22T07:34:08.158Z,101012.31
2023-02-22T07:36:34.810Z,101024.53
2023-02-22T07:39:01.488Z,101028.34
2023-02-22T07:41:28.069Z,101038.50
2023-02-22T07:43:54.636Z,100922.91
2023-02-22T07:46:21.181Z,101033.88
2023-02-22T07:48:47.752Z,101041.03
2023-02-22T07:51:17.465Z,100928.28
2023-02-22T07:53:46.806Z,100984.88
2023-02-22T07:56:13.424Z,101056.44
2023-02-22T07:58:40.059Z,101073.63
2023-02-22T08:01:06.640Z,101072.91
2023-02-22T08:03:36.603Z,101045.59
2023-02-22T08:06:05.685Z,101063.25
2023-02-22T08:08:32.291Z,101043.06
2023-02-22T08:10:58.927Z,101037.91
2023-02-22T08:13:25.530Z,100912.97
2023-02-22T08:15:53.824Z,101064.19
2023-02-22T08:18:21.639Z,100981.09
2023-02-22T08:20:50.381Z,100957.88
2023-02-22T08:23:18.427Z,101040.31
2023-02-22T08:25:45.225Z,101022.41
2023-02-22T08:28:15.023Z,101043.16
2023-02-22T08:30:45.008Z,101077.25
2023-02-22T08:33:15.818Z,101060.97
2023-02-22T08:35:42.882Z,101068.31
2023-02-22T08:38:17.454Z,101064.81
2023-02-22T08:40:44.022Z,101071.47
2023-02-22T08:43:10.555Z,101075.94
2023-02-22T08:45:37.228Z,101074.22
2023-02-22T08:48:04.065Z,100969.66
2023-02-22T08:50:35.594Z,100999.34
2023-02-22T08:53:04.668Z,100972.97
2023-02-22T08:55:34.086Z,101041.22
2023-02-22T08:58:03.069Z,101007.44
2023-02-22T09:00:33.572Z,100969.03
2023-02-22T09:03:01.689Z,101064.03
2023-02-22T09:05:31.121Z,101023.84
2023-02-22T09:07:58.015Z,101044.78
2023-02-22T09:10:27.557Z,101002.84
2023-02-22T09:12:58.127Z,101017.53
2023-02-22T09:15:25.456Z,100991.03
2023-02-22T09:17:53.123Z,101007.41
2023-02-22T09:20:21.929Z,101038.06
2023-02-22T09:22:49.949Z,100999.03
2023-02-22T09:25:18.109Z,101046.66
2023-02-22T09:27:48.318Z,101049.66
2023-02-22T09:30:19.944Z,101026.94
2023-02-22T09:32:46.652Z,101040.03
2023-02-22T09:35:13.344Z,101002.88
2023-02-22T09:37:39.991Z,101011.63
2023-02-22T09:40:10.040Z,101006.56
2023-02-22T09:42:53.986Z,101017.44
2023-02-22T09:45:27.774Z,100959.28
2023-02-22T09:48:08.187Z,101012.00
2023-02-22T09:50:46.413Z,100941.75
2023-02-22T09:53:21.786Z,101016.91
2023-02-22T09:55:52.330Z,101000.13
2023-02-22T09:58:24.113Z,100928.06
2023-02-22T10:00:59.541Z,100983.63
2023-02-22T10:03:51.177Z,100996.25
2023-02-22T10:06:23.067Z,101010.53
2023-02-22T10:08:56.282Z,100958.88
2023-02-22T10:11:48.622Z,100995.53
2023-02-22T10:14:33.936Z,101004.63
2023-02-22T10:17:30.374Z,101002.38
2023-02-22T10:20:21.778Z,101001.00
2023-02-22T10:23:00.752Z,100992.34
2023-02-22T10:25:34.920Z,100976.75
2023-02-22T10:28:19.670Z,100974.25
2023-02-22T10:31:02.119Z,100989.75
2023-02-22T10:34:03.248Z,100984.59
2023-02-22T10:36:29.891Z,100977.59
2023-02-22T10:39:10.763Z,100903.69
2023-02-22T10:41:44.751Z,100901.03
2023-02-22T10:44:11.381Z,100942.00
2023-02-22T10:46:40.630Z,100942.03
2023-02-22T10:49:07.811Z,100873.44
2023-02-22T10:51:35.270Z,100946.50
2023-02-22T10:54:28.485Z,100960.75
2023-02-22T10:56:56.450Z,100941.13
2023-02-22T10:59:34.589Z,100943.66
2023-02-22T11:02:08.493Z,100887.59
2023-02-22T11:04:49.438Z,100937.41
2023-02-22T11:07:22.547Z,100955.94
2023-02-22T11:09:52.709Z,100929.91
2023-02-22T11:12:33.620Z,100952.06
2023-02-22T11:15:32.482Z,100950.22
2023-02-22T11:18:01.772Z,100885.25
2023-02-22T11:20:38.403Z,100881.72
2023-02-22T11:23:05.861Z,100885.34
2023-02-22T11:25:36.660Z,100943.06
2023-02-22T11:28:08.063Z,100942.91
2023-02-22T11:30:36.088Z,100886.72
2023-02-22T11:33:26.021Z,100956.75
2023-02-22T11:35:58.188Z,100875.50
2023-02-22T11:38:30.722Z,100944.84
2023-02-22T11:41:15.525Z,100937.19
2023-02-22T11:43:47.909Z,100931.00
2023-02-22T11:46:14.535Z,100929.59
2023-02-22T11:48:54.431Z,100850.91
2023-02-22T11:51:35.804Z,100926.59
2023-02-22T11:54:25.716Z,100923.16
2023-02-22T11:56:55.722Z,100859.59
2023-02-22T11:59:22.666Z,100917.50
2023-02-22T12:01:55.778Z,100919.38
2023-02-22T12:04:54.132Z,100907.66
2023-02-22T12:07:23.869Z,100902.63
2023-02-22T12:10:09.040Z,100825.25
2023-02-22T12:13:00.005Z,100908.47
2023-02-22T12:15:27.152Z,100892.88
2023-02-22T12:18:09.165Z,100780.88
2023-02-22T12:20:57.304Z,100873.06
2023-02-22T12:23:44.690Z,100817.44
2023-02-22T12:26:16.990Z,100815.13
2023-02-22T12:28:47.655Z,100882.47
2023-02-22T12:31:25.220Z,100877.31
2023-02-22T12:34:01.045Z,100871.03
2023-02-22T12:36:36.403Z,100858.41
2023-02-22T12:39:16.195Z,100800.25
2023-02-22T12:41:48.224Z,100791.66
2023-02-22T12:44:20.412Z,100868.06
2023-02-22T12:46:55.121Z,100791.47
2023-02-22T12:49:49.651Z,100832.00
2023-02-22T12:52:41.550Z,100756.16
2023-02-22T12:55:21.070Z,100782.13
2023-02-22T12:57:57.171Z,100858.72
2023-02-22T13:00:35.018Z,100870.63
2023-02-22T13:03:26.437Z,100874.28
2023-02-22T13:06:06.724Z,100863.72
2023-02-22T13:08:51.566Z,100876.97
2023-02-22T13:11:32.197Z,100889.53
2023-02-22T13:14:30.059Z,100823.91
2023-02-22T13:17:30.358Z,100872.72
2023-02-22T13:20:08.693Z,100871.94
2023-02-22T13:22:35.154Z,100896.97
2023-02-22T13:25:19.574Z,100882.81
2023-02-22T13:28:10.221Z,100891.84
2023-02-22T13:30:41.580Z,100876.75
2023-02-22T13:33:17.706Z,100883.13
2023-02-22T13:35:55.419Z,100884.97
2023-02-22T13:38:53.630Z,100874.31
2023-02-22T13:41:39.384Z,100790.69
2023-02-22T13:44:20.851Z,100869.91
2023-02-22T13:46:53.366Z,100868.13
2023-02-22T13:49:27.859Z,100865.44
2023-02-22T13:51:58.963Z,100835.16
2023-02-22T13:54:48.418Z,100797.81
2023-02-22T13:57:39.327Z,100803.09
2023-02-22T14:00:14.866Z,100871.63
2023-02-22T14:03:15.170Z,100875.16
2023-02-22T14:05:42.192Z,100869.78
2023-02-22T14:08:18.710Z,100877.75
2023-02-22T14:11:07.087Z,100797.50
2023-02-22T14:13:55.566Z,100874.09
2023-02-22T14:16:26.025Z,100842.84
2023-02-22T14:19:06.410Z,100865.16
2023-02-22T14:21:35.156Z,100870.44
2023-02-22T14:24:14.025Z,100845.44
2023-02-22T14:26:53.474Z,100874.81
2023-02-22T14:29:21.666Z,100867.66
2023-02-22T14:31:49.982Z,100877.41
2023-02-22T14:34:18.803Z,100877.34
2023-02-22T14:37:09.005Z,100865.72
2023-02-22T14:39:51.240Z,100883.50
2023-02-22T14:42:27.092Z,100887.03
2023-02-22T14:45:05.934Z,100886.06
2023-02-22T14:47:38.470Z,100891.31
2023-02-22T14:50:13.287Z,100892.13
2023-02-22T14:52:42.947Z,100854.63
2023-02-22T14:55:22.582Z,100891.88
2023-02-22T14:58:10.609Z,100898.81
2023-02-22T15:00:46.061Z,100881.69
2023-02-22T15:03:25.212Z,100903.78
2023-02-22T15:05:51.809Z,100811.69
2023-02-22T15:08:27.860Z,100815.16
2023-02-22T15:10:54.868Z,100821.34
2023-02-22T15:13:27.544Z,100798.22
2023-02-22T15:16:07.868Z,100815.97
2023-02-22T15:18:40.362Z,100904.13
2023-02-22T15:21:13.496Z,100841.69
2023-02-22T15:23:54.715Z,100869.22
2023-02-22T15:26:52.021Z,100909.31
2023-02-22T15:29:39.293Z,100813.03
2023-02-22T15:32:29.152Z,100868.38
2023-02-22T15:35:05.394Z,100873.66
2023-02-22T15:37:32.505Z,100829.94
2023-02-22T15:40:14.321Z,100881.66
2023-02-22T15:43:02.242Z,100851.34
2023-02-22T15:45:29.921Z,100878.13
2023-02-22T15:47:58.520Z,100828.16
2023-02-22T15:50:33.894Z,100910.25
2023-02-22T15:53:07.732Z,100920.94
2023-02-22T15:55:36.038Z,100826.31
2023-02-22T15:58:22.248Z,100891.44
2023-02-22T16:00:58.920Z,100919.09
2023-02-22T16:03:28.681Z,100897.63
2023-02-22T16:05:57.244Z,100919.06
2023-02-22T16:08:29.298Z,100928.00
2023-02-22T16:11:13.340Z,100848.53
2023-02-22T16:13:42.067Z,100907.44
2023-02-22T16:16:20.647Z,100927.06
2023-02-22T16:18:47.661Z,100912.78
2023-02-22T16:21:17.678Z,100927.88
2023-02-22T16:23:55.989Z,100902.78
2023-02-22T16:26:27.728Z,100934.88
2023-02-22T16:29:05.002Z,100936.63
2023-02-22T16:31:37.066Z,100891.09
2023-02-22T16:34:06.524Z,100908.97
2023-02-22T16:36:45.140Z,100898.16
2023-02-22T16:39:35.885Z,100933.81
2023-02-22T16:42:10.430Z,100933.78
2023-02-22T16:44:37.739Z,100937.28
2023-02-22T16:47:04.316Z,100851.56
2023-02-22T16:49:30.877Z,100936.34
2023-02-22T16:52:01.354Z,100934.53
2023-02-22T16:54:36.456Z,100855.88
2023-02-22T16:57:04.942Z,100915.63
2023-02-22T16:59:36.350Z,100898.66
2023-02-22T17:02:07.381Z,100921.03
2023-02-22T17:04:36.529Z,100913.75
2023-02-22T17:07:05.161Z,100910.22
2023-02-22T17:09:32.754Z,100805.75
2023-02-22T17:11:59.451Z,100855.72
2023-02-22T17:14:31.268Z,100856.44
2023-02-22T17:16:58.421Z,100931.34
2023-02-22T17:19:25.241Z,100799.13
2023-02-22T17:21:52.915Z,100874.94
2023-02-22T17:24:23.447Z,100884.66
2023-02-22T17:26:52.929Z,100948.03
2023-02-22T17:29:24.279Z,100873.97
2023-02-22T17:31:52.459Z,100923.97
2023-02-22T17:34:19.396Z,100925.75
2023-02-22T17:36:46.473Z,100913.00
2023-02-22T17:39:13.485Z,100947.88
2023-02-22T17:41:40.906Z,100961.22
2023-02-22T17:44:07.942Z,100902.06
2023-02-22T17:46:36.504Z,100972.69
2023-02-22T17:49:03.353Z,100897.59
2023-02-22T17:51:30.100Z,100903.84
2023-02-22T17:53:56.922Z,100951.22
2023-02-22T17:56:23.583Z,100954.84
2023-02-22T17:58:53.951Z,100932.44
2023-02-22T18:01:32.244Z,100991.47
2023-02-22T18:04:01.217Z,100967.38
2023-02-22T18:06:30.072Z,101005.75
2023-02-22T18:08:59.450Z,100996.94
2023-02-22T18:11:28.402Z,100998.81
2023-02-22T18:13:57.158Z,100997.16
2023-02-22T18:16:27.738Z,100921.25
2023-02-22T18:18:56.847Z,100913.31
2023-02-22T18:21:23.927Z,100968.66
2023-02-22T18:23:50.508Z,100965.09
2023-02-22T18:26:19.181Z,100978.50
2023-02-22T18:28:48.469Z,100908.91
2023-02-22T18:31:17.017Z,100909.91
2023-02-22T18:33:44.902Z,100987.59
2023-02-22T18:36:13.139Z,100916.19
2023-02-22T18:38:44.097Z,100955.47
2023-02-22T18:41:13.214Z,100907.38
2023-02-22T18:43:40.259Z,101000.25
2023-02-22T18:46:16.075Z,100977.94
2023-02-22T18:48:43.710Z,100997.59
2023-02-22T18:51:14.171Z,100987.81
2023-02-22T18:53:46.963Z,100984.19
2023-02-22T18:56:17.223Z,100910.16
2023-02-22T18:58:44.164Z,100922.53
2023-02-22T19:01:17.842Z,100972.59
2023-02-22T19:03:47.108Z,100977.94
2023-02-22T19:06:14.937Z,100985.00
2023-02-22T19:08:42.679Z,100999.31
2023-02-22T19:11:17.768Z,100981.53
2023-02-22T19:13:49.371Z,100912.75
2023-02-22T19:16:21.859Z,100962.78
2023-02-22T19:18:49.708Z,100918.06
2023-02-22T19:21:16.604Z,100984.91
2023-02-22T19:23:47.566Z,100980.56
2023-02-22T19:26:24.011Z,100986.00
2023-02-22T19:28:53.481Z,100898.53
2023-02-22T19:31:21.819Z,100974.31
2023-02-22T19:33:52.679Z,101004.72
2023-02-22T19:36:22.936Z,101001.06
2023-02-22T19:38:49.763Z,100909.06
2023-02-22T19:41:20.352Z,101005.44
2023-02-22T19:43:48.496Z,100965.16
2023-02-22T19:46:17.783Z,101015.03
2023-02-22T19:48:50.999Z,100911.25
2023-02-22T19:51:19.542Z,101012.22
2023-02-22T19:53:47.116Z,100981.81
2023-02-22T19:56:42.722Z,101012.97
2023-02-22T19:59:13.639Z,100951.41
2023-02-22T20:01:44.026Z,101002.25
2023-02-22T20:04:17.689Z,101013.88
2023-02-22T20:07:20.436Z,101014.81
2023-02-22T20:09:53.701Z,100988.72
2023-02-22T20:12:21.386Z,101012.81
2023-02-22T20:14:47.990Z,100908.16
2023-02-22T20:17:14.489Z,100979.66
2023-02-22T20:19:42.440Z,101014.34
2023-02-22T20:22:12.326Z,101034.75
2023-02-22T20:24:39.010Z,100993.69
2023-02-22T20:27:05.634Z,100945.34
2023-02-22T20:29:32.387Z,101020.41
2023-02-22T20:32:00.864Z,101009.78
2023-02-22T20:34:32.438Z,101010.63
2023-02-22T20:37:00.295Z,101003.47
2023-02-22T20:39:27.180Z,101005.19
2023-02-22T20:41:54.538Z,100955.09
2023-02-22T20:44:21.810Z,100930.00
2023-02-22T20:46:49.422Z,100949.72
2023-02-22T20:49:18.962Z,100930.00
2023-02-22T20:51:46.555Z,101024.72
2023-02-22T20:54:13.529Z,101023.81
2023-02-22T20:56:41.827Z,101030.88
2023-02-22T20:59:11.891Z,100961.16
2023-02-22T21:01:38.517Z,100958.28
2023-02-22T21:04:07.289Z,101026.31
2023-02-22T21:06:36.245Z,100981.53
2023-02-22T21:09:07.193Z,101039.72
2023-02-22T21:11:33.863Z,101010.16
2023-02-22T21:14:01.931Z,100961.94
2023-02-22T21:16:35.355Z,101034.34
2023-02-22T21:19:04.745Z,101034.19
2023-02-22T21:21:31.810Z,100960.91
2023-02-22T21:24:02.825Z,100951.09
2023-02-22T21:26:33.800Z,100904.59
2023-02-22T21:29:06.042Z,100985.91
2023-02-22T21:31:34.260Z,101028.78
2023-02-22T21:34:01.137Z,101053.88
2023-02-22T21:36:28.708Z,101050.13
2023-02-22T21:39:00.622Z,100974.19
2023-02-22T21:41:29.450Z,101055.53
2023-02-22T21:43:57.699Z,101024.41
2023-02-22T21:46:25.489Z,100978.72
2023-02-22T21:48:52.103Z,101051.31
2023-02-22T21:51:32.507Z,100951.00
2023-02-22T21:54:08.123Z,100960.94
2023-02-22T21:56:39.719Z,100969.94
2023-02-22T21:59:11.598Z,100938.69
2023-02-22T22:01:47.773Z,100952.19
2023-02-22T22:04:18.899Z,101038.97
2023-02-22T22:06:47.755Z,101015.78
2023-02-22T22:09:21.896Z,101056.81
2023-02-22T22:11:50.982Z,100962.03
2023-02-22T22:14:19.376Z,100948.63
2023-02-22T22:16:48.064Z,100961.25
2023-02-22T22:19:15.016Z,100942.44
2023-02-22T22:21:41.578Z,101013.13
2023-02-22T22:24:10.359Z,101026.47
2023-02-22T22:26:37.974Z,101018.34
2023-02-22T22:29:05.111Z,101041.75
2023-02-22T22:31:32.326Z,100952.16
2023-02-22T22:33:59.133Z,101019.09
2023-02-22T22:36:27.320Z,101024.41
2023-02-22T22:38:57.526Z,101044.03
2023-02-22T22:41:27.854Z,101020.81
2023-02-22T22:43:54.403Z,100999.22
2023-02-22T22:46:22.464Z,101018.00
2023-02-22T22:48:49.055Z,100958.88
2023-02-22T22:51:21.087Z,101050.91
2023-02-22T22:53:49.771Z,101027.66
2023-02-22T22:56:26.197Z,101017.84
2023-02-22T22:58:58.092Z,101049.13
2023-02-22T23:01:27.865Z,101056.16
2023-02-22T23:04:01.793Z,101040.13
2023-02-22T23:06:34.269Z,101028.41
2023-02-22T23:09:11.479Z,101046.16
2023-02-22T23:11:44.431Z,100954.09
2023-02-22T23:14:19.353Z,100962.09
2023-02-22T23:16:50.522Z,100973.66
2023-02-22T23:19:19.122Z,100978.91
2023-02-22T23:21:50.142Z,100970.09
2023-02-22T23:24:21.032Z,100964.75
2023-02-22T23:26:48.869Z,101060.31
2023-02-22T23:29:20.656Z,100926.09
2023-02-22T23:31:48.829Z,101019.78
2023-02-22T23:34:21.075Z,101023.16
2023-02-22T23:36:48.418Z,100957.25
2023-02-22T23:39:18.132Z,101032.19
2023-02-22T23:41:44.789Z,101030.25
2023-02-22T23:44:17.080Z,100985.41
2023-02-22T23:46:47.553Z,100974.63
2023-02-22T23:49:19.911Z,100969.16
2023-02-22T23:51:47.677Z,101063.09
2023-02-22T23:54:19.294Z,101049.59
2023-02-22T23:57:05.267Z,101041.66
2023-02-22T23:59:33.269Z,101071.00
